Time;durP1;ratioP1;P1;durP2;ratioP2;P2;SDS_P1;SDS_P2;PMS_P1;PMS_P2;Temp;Humidity;BMP_temperature;BMP_pressure;BME280_temperature;BME280_humidity;BME280_pressure;Samples;Min_cycle;Max_cycle;Signal;HPM_P1;HPM_P2
2022/03/25 00:01:41;;;;;;;2.00;1.75;;;6.00;99.90;;;;;;5054733;28;20473;-82
2022/03/25 00:04:07;;;;;;;4.65;1.65;;;6.00;99.90;;;;;;5038106;28;20053;-82
2022/03/25 00:06:33;;;;;;;3.70;0.80;;;6.00;99.90;;;;;;5054579;28;20053;-82
2022/03/25 00:08:58;;;;;;;6.15;2.58;;;5.90;99.90;;;;;;5054629;28;20041;-82
2022/03/25 00:11:24;;;;;;;4.53;0.77;;;5.90;99.90;;;;;;5037934;28;20412;-82
2022/03/25 00:13:50;;;;;;;1.27;0.30;;;5.80;99.90;;;;;;5054548;28;20499;-82
2022/03/25 00:16:15;;;;;;;2.47;1.25;;;5.80;99.90;;;;;;5054497;28;20091;-82
2022/03/25 00:18:41;;;;;;;1.70;0.32;;;5.80;99.90;;;;;;5053678;28;20045;-82
2022/03/25 00:21:06;;;;;;;4.95;2.33;;;5.80;99.90;;;;;;5037877;28;20057;-82
2022/03/25 00:23:32;;;;;;;1.00;0.93;;;5.70;99.90;;;;;;5054377;28;20037;-82
2022/03/25 00:25:58;;;;;;;3.53;1.35;;;5.70;99.90;;;;;;5037745;28;20053;-82
2022/03/25 00:28:23;;;;;;;0.20;0.17;;;5.70;99.90;;;;;;5054032;28;20047;-82
2022/03/25 00:30:50;;;;;;;2.20;0.98;;;5.60;99.90;;;;;;5037506;28;20088;-82
2022/03/25 00:33:16;;;;;;;3.35;1.08;;;5.50;99.90;;;;;;5037451;28;20044;-82
2022/03/25 00:35:43;;;;;;;10.52;1.70;;;5.60;99.90;;;;;;5054092;28;20052;-82
2022/03/25 00:38:09;;;;;;;1.20;1.10;;;5.40;99.90;;;;;;5037670;28;20400;-82
2022/03/25 00:40:34;;;;;;;2.20;0.73;;;5.40;99.90;;;;;;5037975;28;20084;-82
2022/03/25 00:43:00;;;;;;;2.38;1.63;;;5.30;99.90;;;;;;5037863;28;20045;-82
2022/03/25 00:45:29;;;;;;;0.35;0.35;;;5.40;99.90;;;;;;5054362;28;20194;-82
2022/03/25 00:47:55;;;;;;;5.38;1.20;;;5.30;99.90;;;;;;5037339;28;20076;-82
2022/03/25 00:50:21;;;;;;;6.03;1.05;;;5.20;99.90;;;;;;5054428;28;20041;-82
2022/03/25 00:52:47;;;;;;;1.05;0.40;;;5.20;99.90;;;;;;5053765;28;20488;-82
2022/03/25 00:55:13;;;;;;;1.92;1.83;;;5.20;99.90;;;;;;5054287;28;20053;-82
2022/03/25 00:57:38;;;;;;;3.13;1.35;;;5.00;99.90;;;;;;5053817;28;20048;-82
2022/03/25 01:00:05;;;;;;;0.60;0.47;;;5.00;99.90;;;;;;5053501;28;20396;-82
2022/03/25 01:02:30;;;;;;;1.95;1.38;;;4.90;99.90;;;;;;5037120;28;20049;-82
2022/03/25 01:04:56;;;;;;;1.65;0.95;;;4.90;99.90;;;;;;5037194;28;20045;-82
2022/03/25 01:07:22;;;;;;;1.33;1.13;;;4.90;99.90;;;;;;5053230;28;20045;-82
2022/03/25 01:09:47;;;;;;;0.22;0.20;;;4.90;99.90;;;;;;5053856;28;20140;-82
2022/03/25 01:12:13;;;;;;;1.45;0.75;;;4.90;99.90;;;;;;5053582;28;20053;-82
2022/03/25 01:14:39;;;;;;;1.77;0.70;;;4.90;99.90;;;;;;5053510;28;20080;-82
2022/03/25 01:17:05;;;;;;;0.88;0.88;;;4.90;99.90;;;;;;5037066;28;20505;-82
2022/03/25 01:19:30;;;;;;;1.10;1.05;;;4.80;99.90;;;;;;5053451;28;20048;-82
2022/03/25 01:21:56;;;;;;;7.30;1.55;;;4.80;99.90;;;;;;5036999;28;20053;-82
2022/03/25 01:24:23;;;;;;;2.83;2.08;;;4.70;99.90;;;;;;5036776;28;20060;-82
2022/03/25 01:26:49;;;;;;;5.10;1.23;;;4.70;99.90;;;;;;5053240;28;20049;-82
2022/03/25 01:29:15;;;;;;;0.45;0.45;;;4.80;99.90;;;;;;5053254;28;20041;-82
2022/03/25 01:31:41;;;;;;;0.45;0.45;;;4.80;99.90;;;;;;5052326;28;20199;-82
2022/03/25 01:34:07;;;;;;;2.42;1.15;;;4.80;99.90;;;;;;5036737;28;20099;-82
2022/03/25 01:36:33;;;;;;;4.38;1.95;;;4.80;99.90;;;;;;5036339;28;20465;-83
2022/03/25 01:38:59;;;;;;;1.73;0.47;;;4.80;99.90;;;;;;5053205;28;20041;-82
2022/03/25 01:41:26;;;;;;;1.25;1.00;;;4.80;99.90;;;;;;5036840;28;20067;-83
2022/03/25 01:43:57;;;;;;;6.05;1.75;;;4.70;99.90;;;;;;5036544;28;20056;-82
2022/03/25 01:46:23;;;;;;;1.33;1.23;;;4.70;99.90;;;;;;5036511;28;20056;-83
2022/03/25 01:48:50;;;;;;;0.95;0.93;;;4.60;99.90;;;;;;5053080;28;20051;-83
2022/03/25 01:51:34;;;;;;;7.03;1.58;;;4.60;99.90;;;;;;5036378;28;20476;-82
2022/03/25 01:54:23;;;;;;;0.88;0.63;;;4.60;99.90;;;;;;5052803;28;20136;-82
2022/03/25 01:56:56;;;;;;;6.43;1.55;;;4.50;99.90;;;;;;5036400;28;20067;-82
2022/03/25 01:59:22;;;;;;;3.75;0.25;;;4.50;99.90;;;;;;5036664;28;20128;-82
2022/03/25 02:01:49;;;;;;;0.28;0.28;;;4.50;99.90;;;;;;5036476;28;20063;-82
2022/03/25 02:04:15;;;;;;;0.70;0.38;;;4.40;99.90;;;;;;5036538;28;20083;-82
2022/03/25 02:06:41;;;;;;;0.93;0.93;;;4.40;99.90;;;;;;5036445;28;20084;-82
2022/03/25 02:09:07;;;;;;;0.88;0.88;;;4.40;99.90;;;;;;5036148;28;20476;-82
2022/03/25 02:11:34;;;;;;;0.10;0.10;;;4.40;99.90;;;;;;5052832;28;20051;-83
2022/03/25 02:14:01;;;;;;;0.17;0.10;;;4.40;99.90;;;;;;5035966;28;20057;-82
2022/03/25 02:16:40;;;;;;;2.83;0.95;;;4.40;99.90;;;;;;5053244;28;20049;-82
2022/03/25 02:19:08;;;;;;;2.95;0.70;;;4.40;99.90;;;;;;5036181;28;20095;-82
2022/03/25 02:21:35;;;;;;;2.20;0.85;;;4.40;99.90;;;;;;5052919;28;20084;-82
2022/03/25 02:24:01;;;;;;;0.55;0.55;;;4.40;99.90;;;;;;5036095;28;20139;-82
2022/03/25 02:26:28;;;;;;;0.05;0.05;;;4.40;99.90;;;;;;5052715;28;20480;-82
2022/03/25 02:28:55;;;;;;;0.93;0.57;;;4.30;99.90;;;;;;5052836;28;20131;-82
2022/03/25 02:31:21;;;;;;;0.68;0.28;;;4.30;99.90;;;;;;5035878;28;20061;-82
2022/03/25 02:33:47;;;;;;;1.98;1.33;;;4.30;99.90;;;;;;5052713;28;20072;-82
2022/03/25 02:36:12;;;;;;;0.65;0.55;;;4.20;99.90;;;;;;5052633;28;20044;-82
2022/03/25 02:38:38;;;;;;;0.90;0.55;;;4.20;99.90;;;;;;5053300;28;20052;-83
2022/03/25 02:41:05;;;;;;;0.08;0.08;;;4.20;99.90;;;;;;5035857;28;20048;-82
2022/03/25 02:43:31;;;;;;;0.20;0.20;;;4.20;99.90;;;;;;5055606;28;20052;-83
2022/03/25 02:45:56;;;;;;;0.10;0.10;;;4.20;99.90;;;;;;5056529;28;20045;-83
2022/03/25 02:48:22;;;;;;;0.25;0.17;;;4.20;99.90;;;;;;5056106;28;20504;-82
2022/03/25 02:50:48;;;;;;;8.20;1.35;;;4.20;99.90;;;;;;5039600;28;20178;-82
2022/03/25 02:53:15;;;;;;;0.57;0.57;;;4.20;99.90;;;;;;5039403;28;20486;-82
2022/03/25 02:55:42;;;;;;;2.85;0.63;;;4.30;99.90;;;;;;5056793;28;20146;-82
2022/03/25 02:58:09;;;;;;;0.38;0.00;;;4.30;99.90;;;;;;5056242;28;20191;-82
2022/03/25 03:00:35;;;;;;;0.50;0.47;;;4.30;99.90;;;;;;5039539;28;20049;-83
2022/03/25 03:03:01;;;;;;;0.95;0.25;;;4.30;99.90;;;;;;5055966;28;20068;-83
2022/03/25 03:05:28;;;;;;;3.72;0.55;;;4.20;99.90;;;;;;5039304;28;20048;-82
2022/03/25 03:07:55;;;;;;;1.23;0.60;;;4.20;99.90;;;;;;5055849;28;20537;-82
2022/03/25 03:10:21;;;;;;;5.07;0.80;;;4.20;99.90;;;;;;5055696;28;20045;-83
2022/03/25 03:12:47;;;;;;;0.55;0.32;;;4.20;99.90;;;;;;5055762;28;20048;-83
2022/03/25 03:15:15;;;;;;;0.55;0.55;;;4.20;99.90;;;;;;5055761;28;20045;-82
2022/03/25 03:17:41;;;;;;;0.55;0.20;;;4.20;99.90;;;;;;5055625;28;20048;-83
2022/03/25 03:20:08;;;;;;;0.60;0.60;;;4.20;99.90;;;;;;5055622;28;20041;-82
2022/03/25 03:22:34;;;;;;;0.80;0.73;;;4.20;99.90;;;;;;5055583;28;20041;-83
2022/03/25 03:25:01;;;;;;;0.50;0.50;;;4.20;99.90;;;;;;5038768;28;20057;-83
2022/03/25 03:27:27;;;;;;;0.57;0.57;;;4.30;99.90;;;;;;5038958;28;20037;-83
2022/03/25 03:29:53;;;;;;;0.20;0.20;;;4.20;99.90;;;;;;5055731;28;20049;-83
2022/03/25 03:32:19;;;;;;;0.45;0.45;;;4.30;99.90;;;;;;5038782;28;20055;-82
2022/03/25 03:34:45;;;;;;;1.85;0.98;;;4.30;99.90;;;;;;5056209;28;20045;-83
2022/03/25 03:37:10;;;;;;;1.30;1.02;;;4.20;99.90;;;;;;5055962;28;20404;-83
2022/03/25 03:39:36;;;;;;;0.85;0.50;;;4.20;99.90;;;;;;5055443;28;20045;-83
2022/03/25 03:42:03;;;;;;;0.10;0.10;;;4.20;99.90;;;;;;5055270;28;20424;-83
2022/03/25 03:44:29;;;;;;;4.85;1.25;;;4.20;99.90;;;;;;5055541;28;20131;-83
2022/03/25 03:46:56;;;;;;;0.80;0.77;;;4.10;99.90;;;;;;5054943;28;20044;-82
2022/03/25 03:49:22;;;;;;;0.82;0.47;;;4.10;99.90;;;;;;5055338;28;20049;-83
2022/03/25 03:51:47;;;;;;;0.20;0.20;;;4.10;99.90;;;;;;5055479;28;20487;-83
2022/03/25 03:54:13;;;;;;;3.53;0.43;;;4.10;99.90;;;;;;5053757;28;20053;-82
2022/03/25 03:56:39;;;;;;;1.27;0.47;;;4.00;99.90;;;;;;5038052;28;20088;-83
2022/03/25 03:59:04;;;;;;;0.75;0.35;;;4.10;99.90;;;;;;5038168;28;20052;-82
2022/03/25 04:01:30;;;;;;;0.60;0.10;;;4.00;99.90;;;;;;5055050;28;20056;-83
2022/03/25 04:03:56;;;;;;;0.00;0.00;;;4.00;99.90;;;;;;5038212;28;20052;-83
2022/03/25 04:06:22;;;;;;;2.75;0.28;;;4.00;99.90;;;;;;5055555;28;20136;-83
2022/03/25 04:08:49;;;;;;;1.23;1.13;;;3.90;99.90;;;;;;5054363;28;20076;-83
2022/03/25 04:11:15;;;;;;;1.23;0.57;;;3.90;99.90;;;;;;5054839;28;20049;-82
2022/03/25 04:13:43;;;;;;;0.98;0.93;;;3.90;99.90;;;;;;5054656;28;20049;-83
2022/03/25 04:16:10;;;;;;;0.60;0.60;;;3.90;99.90;;;;;;5054397;28;20053;-83
2022/03/25 04:18:36;;;;;;;1.23;0.93;;;3.90;99.90;;;;;;5054494;28;20048;-83
2022/03/25 04:21:02;;;;;;;0.08;0.08;;;3.90;99.90;;;;;;5054706;28;20049;-83
2022/03/25 04:23:28;;;;;;;0.63;0.43;;;3.90;99.90;;;;;;5038034;28;20056;-83
2022/03/25 04:25:53;;;;;;;1.08;1.08;;;3.90;99.90;;;;;;5037629;28;20420;-83
2022/03/25 04:28:19;;;;;;;1.35;0.25;;;3.80;99.90;;;;;;5037366;28;20049;-83
2022/03/25 04:30:44;;;;;;;2.20;0.63;;;3.80;99.90;;;;;;5037517;28;20066;-83
2022/03/25 04:33:10;;;;;;;1.55;0.68;;;3.80;99.90;;;;;;5054185;28;20048;-83
2022/03/25 04:35:36;;;;;;;0.30;0.30;;;3.80;99.90;;;;;;5054729;28;20041;-83
2022/03/25 04:38:02;;;;;;;1.65;0.60;;;3.80;99.90;;;;;;5037702;28;20473;-83
2022/03/25 04:40:30;;;;;;;0.57;0.35;;;3.80;99.90;;;;;;5037576;28;20515;-83
2022/03/25 04:42:58;;;;;;;0.68;0.43;;;3.80;99.90;;;;;;5037654;28;20064;-83
2022/03/25 04:45:25;;;;;;;0.47;0.30;;;3.80;99.90;;;;;;5037394;28;20068;-83
2022/03/25 04:47:51;;;;;;;4.47;1.55;;;3.70;99.90;;;;;;5037512;28;20053;-83
2022/03/25 04:50:17;;;;;;;1.45;1.35;;;3.70;99.90;;;;;;5037256;28;20057;-83
2022/03/25 04:52:43;;;;;;;0.85;0.55;;;3.70;99.90;;;;;;5037214;28;20064;-84
2022/03/25 04:55:11;;;;;;;0.88;0.52;;;3.70;99.90;;;;;;5053318;28;20049;-84
2022/03/25 04:57:40;;;;;;;1.10;0.57;;;3.60;99.90;;;;;;5053657;28;20057;-84
2022/03/25 05:00:08;;;;;;;0.15;0.15;;;3.60;99.90;;;;;;5036865;28;20061;-83
2022/03/25 05:02:34;;;;;;;0.20;0.20;;;3.50;99.90;;;;;;5037320;28;20051;-84
2022/03/25 05:05:00;;;;;;;1.45;0.47;;;3.50;99.90;;;;;;5053477;28;20049;-83
2022/03/25 05:07:26;;;;;;;0.32;0.30;;;3.50;99.90;;;;;;5036644;28;20053;-84
2022/03/25 05:09:52;;;;;;;0.28;0.28;;;3.50;99.90;;;;;;5053951;28;20493;-84
2022/03/25 05:12:18;;;;;;;0.35;0.35;;;3.40;99.90;;;;;;5053641;28;20045;-83
2022/03/25 05:14:44;;;;;;;0.20;0.20;;;3.40;99.90;;;;;;5052923;28;20059;-84
2022/03/25 05:17:10;;;;;;;0.63;0.60;;;3.40;99.90;;;;;;5053225;28;20472;-84
2022/03/25 05:19:35;;;;;;;4.88;1.55;;;3.40;99.90;;;;;;5053205;28;20056;-85
2022/03/25 05:22:01;;;;;;;2.75;0.98;;;3.40;99.90;;;;;;5036655;28;20061;-85
2022/03/25 05:24:27;;;;;;;0.57;0.22;;;3.40;99.90;;;;;;5053131;28;20070;-84
2022/03/25 05:26:54;;;;;;;0.50;0.50;;;3.40;99.90;;;;;;5053348;28;20045;-84
2022/03/25 05:29:20;;;;;;;0.57;0.57;;;3.80;99.90;;;;;;5036149;28;20144;-84
2022/03/25 05:31:46;;;;;;;0.65;0.65;;;3.30;99.90;;;;;;5036547;28;20485;-84
2022/03/25 05:34:12;;;;;;;1.67;0.30;;;3.30;99.90;;;;;;5053688;28;20049;-84
2022/03/25 05:36:37;;;;;;;2.47;0.60;;;3.30;99.90;;;;;;5053206;28;20076;-84
2022/03/25 05:39:04;;;;;;;1.60;0.50;;;3.20;99.90;;;;;;5053184;28;20056;-84
2022/03/25 05:41:30;;;;;;;0.43;0.30;;;3.10;99.90;;;;;;5052941;28;20056;-84
2022/03/25 05:43:56;;;;;;;3.28;0.55;;;3.10;99.90;;;;;;5053884;28;20044;-84
2022/03/25 05:46:21;;;;;;;0.17;0.17;;;3.10;99.90;;;;;;5036307;28;20040;-84
2022/03/25 05:48:47;;;;;;;0.40;0.40;;;3.10;99.90;;;;;;5052611;28;20040;-84
2022/03/25 05:51:14;;;;;;;1.17;0.90;;;3.10;99.90;;;;;;5036203;28;20515;-85
2022/03/25 05:53:40;;;;;;;1.05;0.75;;;3.00;99.90;;;;;;5052687;28;20041;-84
2022/03/25 05:56:07;;;;;;;0.30;0.10;;;3.00;99.90;;;;;;5052472;28;20493;-84
2022/03/25 05:58:37;;;;;;;0.98;0.55;;;3.00;99.90;;;;;;5036194;28;20044;-84
2022/03/25 06:01:10;;;;;;;0.95;0.70;;;3.00;99.90;;;;;;5036061;28;20484;-84
2022/03/25 06:03:35;;;;;;;0.65;0.52;;;3.00;99.90;;;;;;5036001;28;20057;-84
2022/03/25 06:06:04;;;;;;;0.35;0.20;;;3.00;99.90;;;;;;5052617;28;20033;-84
2022/03/25 06:08:30;;;;;;;1.00;0.40;;;3.10;99.90;;;;;;5052356;28;20045;-84
2022/03/25 06:10:57;;;;;;;1.40;0.70;;;3.10;99.90;;;;;;5052580;28;20510;-84
2022/03/25 06:13:23;;;;;;;1.52;0.47;;;3.00;99.90;;;;;;5052608;28;20071;-83
2022/03/25 06:15:49;;;;;;;0.20;0.00;;;3.00;99.90;;;;;;5036252;28;20061;-84
2022/03/25 06:18:16;;;;;;;0.40;0.40;;;3.10;99.90;;;;;;5056147;28;20138;-84
2022/03/25 06:20:42;;;;;;;0.60;0.20;;;3.20;99.90;;;;;;5056857;28;20056;-84
2022/03/25 06:23:08;;;;;;;0.15;0.15;;;3.20;99.90;;;;;;5040017;28;20041;-84
2022/03/25 06:25:33;;;;;;;1.48;1.30;;;3.30;99.90;;;;;;5056705;28;20052;-84
2022/03/25 06:28:01;;;;;;;0.80;0.20;;;3.20;99.90;;;;;;5056490;28;20045;-84
2022/03/25 06:30:31;;;;;;;0.30;0.30;;;3.30;99.90;;;;;;5056941;28;20076;-84
2022/03/25 06:32:57;;;;;;;2.15;0.43;;;3.40;99.90;;;;;;5040026;28;20048;-84
2022/03/25 06:35:23;;;;;;;1.00;0.52;;;3.50;99.90;;;;;;5056588;28;20045;-84
2022/03/25 06:37:51;;;;;;;4.40;1.20;;;3.50;99.90;;;;;;5039744;28;20080;-84
2022/03/25 06:40:19;;;;;;;1.52;0.28;;;3.60;99.90;;;;;;5056464;28;20179;-85
2022/03/25 06:42:46;;;;;;;2.28;0.90;;;3.60;99.90;;;;;;5039741;28;20049;-84
2022/03/25 06:45:15;;;;;;;1.85;1.10;;;3.60;99.90;;;;;;5039877;28;20059;-84
2022/03/25 06:47:41;;;;;;;0.20;0.20;;;3.70;99.90;;;;;;5056256;28;20048;-84
2022/03/25 06:50:08;;;;;;;0.30;0.30;;;3.70;99.90;;;;;;5056234;28;20087;-84
2022/03/25 06:52:35;;;;;;;4.07;0.82;;;3.90;99.90;;;;;;5039413;28;20044;-85
2022/03/25 06:55:01;;;;;;;1.05;0.98;;;4.00;99.90;;;;;;5056002;28;20057;-85
2022/03/25 06:57:27;;;;;;;2.17;0.65;;;4.10;99.90;;;;;;5056039;28;20112;-84
2022/03/25 06:59:53;;;;;;;1.20;0.77;;;4.20;99.90;;;;;;5039181;28;20053;-84
2022/03/25 07:02:18;;;;;;;0.82;0.47;;;4.20;99.90;;;;;;5056274;28;20048;-84
2022/03/25 07:04:44;;;;;;;1.15;0.65;;;4.30;99.90;;;;;;5039134;28;20053;-84
2022/03/25 07:07:11;;;;;;;2.10;0.65;;;4.30;99.90;;;;;;5055751;28;20045;-84
2022/03/25 07:09:37;;;;;;;1.13;1.00;;;4.50;99.90;;;;;;5055725;28;20060;-84
2022/03/25 07:12:03;;;;;;;4.43;1.20;;;4.60;99.90;;;;;;5055909;28;20044;-84
2022/03/25 07:14:29;;;;;;;3.30;2.58;;;4.90;99.90;;;;;;5056006;28;20163;-84
2022/03/25 07:16:55;;;;;;;3.85;0.88;;;5.10;99.90;;;;;;5055475;28;20128;-84
2022/03/25 07:19:23;;;;;;;0.90;0.90;;;5.20;99.90;;;;;;5055683;28;20134;-84
2022/03/25 07:21:48;;;;;;;1.60;1.50;;;5.50;99.90;;;;;;5038794;28;20429;-84
2022/03/25 07:24:14;;;;;;;0.95;0.65;;;5.90;99.90;;;;;;5039075;28;20049;-84
2022/03/25 07:26:40;;;;;;;0.85;0.85;;;6.40;99.90;;;;;;5055476;28;20040;-83
2022/03/25 07:29:05;;;;;;;1.70;1.58;;;7.00;99.90;;;;;;5037162;28;20448;-84
2022/03/25 07:31:32;;;;;;;3.42;2.20;;;7.70;99.90;;;;;;5038706;28;20111;-84
2022/03/25 07:34:02;;;;;;;2.92;1.00;;;7.80;99.90;;;;;;5038559;28;20052;-84
2022/03/25 07:36:27;;;;;;;1.17;1.05;;;8.00;99.90;;;;;;5038375;28;20053;-84
2022/03/25 07:38:53;;;;;;;2.40;1.88;;;8.10;99.90;;;;;;5038678;28;20132;-84
2022/03/25 07:41:20;;;;;;;3.00;1.10;;;8.40;99.90;;;;;;5055612;28;20052;-83
2022/03/25 07:43:45;;;;;;;1.10;1.10;;;8.70;99.90;;;;;;5038898;28;20056;-83
2022/03/25 07:46:11;;;;;;;2.85;1.67;;;9.00;99.90;;;;;;5038859;28;20045;-83
2022/03/25 07:48:37;;;;;;;2.25;1.70;;;9.30;99.90;;;;;;5054696;28;20087;-83
2022/03/25 07:51:03;;;;;;;2.10;1.75;;;9.30;99.90;;;;;;5054937;28;20047;-83
2022/03/25 07:53:29;;;;;;;8.85;2.65;;;9.20;99.90;;;;;;5055603;28;20045;-83
2022/03/25 07:55:55;;;;;;;1.48;1.38;;;9.00;99.90;;;;;;5055873;28;20060;-83
2022/03/25 07:58:23;;;;;;;1.45;0.85;;;9.20;99.90;;;;;;5038348;28;20132;-83
2022/03/25 08:00:49;;;;;;;2.03;1.73;;;9.40;99.90;;;;;;5038349;28;20139;-83
2022/03/25 08:03:16;;;;;;;1.85;1.65;;;9.50;99.90;;;;;;5038311;28;20060;-83
2022/03/25 08:05:42;;;;;;;2.83;1.10;;;9.40;99.90;;;;;;5054672;28;20128;-83
2022/03/25 08:08:09;;;;;;;2.35;0.70;;;9.20;99.90;;;;;;5054585;28;20063;-83
2022/03/25 08:10:35;;;;;;;1.35;0.77;;;9.30;99.90;;;;;;5054584;28;20048;-83
2022/03/25 08:13:02;;;;;;;7.10;0.93;;;9.30;99.90;;;;;;5054647;28;20052;-83
2022/03/25 08:15:29;;;;;;;6.85;0.32;;;9.30;99.90;;;;;;5054778;28;20102;-83
2022/03/25 08:18:03;;;;;;;3.30;2.70;;;9.30;99.90;;;;;;5038085;28;20048;-83
2022/03/25 08:20:40;;;;;;;2.10;1.35;;;9.30;99.90;;;;;;5055040;28;20041;-84
2022/03/25 08:28:50;;;;;;;5.65;1.95;;;9.40;99.90;;;;;;5055242;28;20488;-83
2022/03/25 08:31:16;;;;;;;4.43;1.35;;;9.40;99.90;;;;;;5054602;28;20149;-84
2022/03/25 08:33:42;;;;;;;0.80;0.80;;;9.50;99.90;;;;;;5054536;28;20087;-83
2022/03/25 08:36:08;;;;;;;0.63;0.60;;;9.50;99.90;;;;;;5038226;28;20092;-84
2022/03/25 08:38:34;;;;;;;1.85;0.68;;;9.80;99.90;;;;;;5054528;28;20095;-84
2022/03/25 08:40:59;;;;;;;2.05;1.95;;;10.00;99.90;;;;;;5037303;28;20049;-84
2022/03/25 08:43:26;;;;;;;3.40;2.17;;;10.10;99.90;;;;;;5053914;28;20051;-84
2022/03/25 08:45:52;;;;;;;0.77;0.75;;;10.30;99.90;;;;;;5037540;28;20088;-84
2022/03/25 08:48:17;;;;;;;1.65;1.55;;;10.40;99.90;;;;;;5037271;28;20091;-83
2022/03/25 08:50:43;;;;;;;4.60;2.38;;;10.30;99.90;;;;;;5054314;28;20049;-84
2022/03/25 08:53:09;;;;;;;1.65;1.50;;;10.30;99.90;;;;;;5037641;28;20052;-84
2022/03/25 08:55:34;;;;;;;0.50;0.50;;;10.60;99.90;;;;;;5054085;28;20448;-84
2022/03/25 08:58:00;;;;;;;1.05;0.98;;;10.80;99.90;;;;;;5054642;28;20159;-84
2022/03/25 09:00:26;;;;;;;1.95;1.70;;;11.00;99.90;;;;;;5053895;28;20053;-83
2022/03/25 09:02:51;;;;;;;3.67;2.85;;;11.30;99.90;;;;;;5054032;28;20041;-84
2022/03/25 09:05:17;;;;;;;6.55;3.92;;;11.50;99.90;;;;;;5053576;28;20369;-84
2022/03/25 09:07:43;;;;;;;1.92;1.75;;;11.60;99.90;;;;;;5053529;28;20044;-84
2022/03/25 09:10:15;;;;;;;1.95;1.95;;;11.90;99.90;;;;;;5037321;28;20057;-84
2022/03/25 09:12:41;;;;;;;8.20;2.00;;;12.20;99.90;;;;;;5057315;28;20127;-83
2022/03/25 09:15:08;;;;;;;2.55;1.98;;;12.30;99.90;;;;;;5058408;28;20091;-83
2022/03/25 09:17:34;;;;;;;4.93;2.38;;;12.30;99.30;;;;;;5058181;28;20394;-84
2022/03/25 09:20:03;;;;;;;4.43;1.95;;;12.50;99.70;;;;;;5058560;28;20037;-83
2022/03/25 09:22:34;;;;;;;0.98;0.98;;;12.60;98.70;;;;;;5041684;28;20425;-84
2022/03/25 09:25:01;;;;;;;1.70;1.60;;;12.90;98.40;;;;;;5058217;28;20122;-83
2022/03/25 09:27:27;;;;;;;9.10;3.00;;;13.00;98.70;;;;;;5056818;28;20040;-84
2022/03/25 09:29:52;;;;;;;2.22;1.75;;;13.10;98.80;;;;;;5056151;28;20049;-83
2022/03/25 09:32:18;;;;;;;6.13;1.52;;;13.30;97.80;;;;;;5055196;28;20045;-83
2022/03/25 09:37:28;;;;;;;4.80;2.53;;;13.40;97.00;;;;;;5054098;28;20395;-83
2022/03/25 09:39:53;;;;;;;1.38;1.27;;;13.60;96.80;;;;;;5053295;28;20045;-83
2022/03/25 09:42:20;;;;;;;5.05;2.50;;;13.50;95.00;;;;;;5053923;28;20380;-84
2022/03/25 09:44:46;;;;;;;2.28;1.60;;;13.60;95.00;;;;;;5052778;28;20048;-83
2022/03/25 09:47:14;;;;;;;3.95;1.60;;;13.70;95.30;;;;;;5036985;28;20059;-83
2022/03/25 09:49:41;;;;;;;5.82;2.15;;;13.90;95.30;;;;;;5052917;28;20056;-83
2022/03/25 09:52:07;;;;;;;2.65;2.33;;;14.10;94.40;;;;;;5036010;28;20055;-83
2022/03/25 09:54:34;;;;;;;1.77;1.67;;;14.20;94.10;;;;;;5052811;28;20049;-83
2022/03/25 09:57:01;;;;;;;1.85;1.45;;;14.40;93.00;;;;;;5052961;28;20053;-83
2022/03/25 09:59:26;;;;;;;3.10;1.73;;;14.50;93.40;;;;;;5052724;28;20484;-83
2022/03/25 10:01:52;;;;;;;1.33;0.88;;;15.00;95.00;;;;;;5052825;28;20045;-83
2022/03/25 10:04:40;;;;;;;1.75;1.73;;;15.10;92.40;;;;;;5036058;28;20051;-83
2022/03/25 10:07:17;;;;;;;1.33;1.10;;;15.30;91.60;;;;;;5052533;28;20075;-83
2022/03/25 10:09:47;;;;;;;12.50;3.03;;;15.50;92.40;;;;;;5052796;28;20036;-83
2022/03/25 10:12:26;;;;;;;2.80;1.55;;;15.60;91.40;;;;;;5052779;28;20187;-83
2022/03/25 10:15:19;;;;;;;2.85;2.65;;;15.60;90.50;;;;;;5052687;28;20508;-83
2022/03/25 10:17:45;;;;;;;1.42;1.05;;;15.50;90.40;;;;;;5052680;28;20463;-82
2022/03/25 10:20:10;;;;;;;1.85;1.05;;;15.70;90.10;;;;;;5035937;28;20501;-83
2022/03/25 10:22:37;;;;;;;3.08;2.15;;;16.10;90.90;;;;;;5036067;28;20071;-83
2022/03/25 10:25:09;;;;;;;3.15;2.95;;;16.20;85.40;;;;;;5052397;28;20514;-83
2022/03/25 10:27:35;;;;;;;0.88;0.88;;;16.00;85.90;;;;;;5052663;28;20041;-82
2022/03/25 10:30:05;;;;;;;1.80;1.70;;;16.00;84.20;;;;;;5052914;28;20045;-82
2022/03/25 10:32:38;;;;;;;3.33;2.65;;;16.10;84.80;;;;;;5052346;28;20045;-83
2022/03/25 10:35:06;;;;;;;2.83;2.72;;;15.90;81.20;;;;;;5052269;28;20099;-83
2022/03/25 10:37:33;;;;;;;2.72;2.45;;;15.90;82.50;;;;;;5052281;28;20492;-83
2022/03/25 10:39:58;;;;;;;1.98;1.85;;;15.90;81.10;;;;;;5052893;28;20404;-83
2022/03/25 10:42:24;;;;;;;3.22;2.97;;;16.00;80.80;;;;;;5053371;28;20052;-83
2022/03/25 10:44:50;;;;;;;4.93;2.63;;;15.80;78.10;;;;;;5052681;28;20073;-83
2022/03/25 10:47:15;;;;;;;7.18;2.22;;;15.90;79.90;;;;;;5051778;28;20427;-82
2022/03/25 10:49:46;;;;;;;1.90;1.52;;;15.90;76.30;;;;;;5052238;28;20041;-82
2022/03/25 10:52:31;;;;;;;1.95;1.42;;;16.00;77.80;;;;;;5052266;28;20044;-82
2022/03/25 10:55:20;;;;;;;1.88;1.77;;;16.40;79.10;;;;;;5052065;28;20068;-82
2022/03/25 10:57:58;;;;;;;6.75;2.70;;;16.60;80.10;;;;;;5052361;28;20053;-82
2022/03/25 11:00:25;;;;;;;3.55;2.03;;;16.80;77.50;;;;;;5052223;28;20052;-82
2022/03/25 11:02:54;;;;;;;1.10;1.05;;;16.80;75.80;;;;;;5035950;28;20121;-82
2022/03/25 11:05:20;;;;;;;5.25;2.92;;;16.80;75.30;;;;;;5039198;28;20053;-82
2022/03/25 11:07:48;;;;;;;2.00;1.90;;;17.00;75.70;;;;;;5056150;28;20140;-83
2022/03/25 11:10:17;;;;;;;6.15;2.97;;;17.10;75.70;;;;;;5056106;28;20167;-82
2022/03/25 11:12:46;;;;;;;3.35;3.25;;;17.20;73.80;;;;;;5055830;28;20176;-82
2022/03/25 11:15:13;;;;;;;4.57;2.03;;;17.30;74.20;;;;;;5038702;28;20056;-82
2022/03/25 11:17:41;;;;;;;3.20;1.98;;;17.30;73.50;;;;;;5039427;28;20072;-82
2022/03/25 11:20:10;;;;;;;8.13;4.53;;;17.50;74.60;;;;;;5055698;28;20386;-82
2022/03/25 11:22:45;;;;;;;4.25;3.72;;;17.60;73.10;;;;;;5039222;28;20139;-82
2022/03/25 11:25:16;;;;;;;4.65;2.17;;;17.40;70.90;;;;;;5055574;28;20040;-82
2022/03/25 11:27:47;;;;;;;5.25;3.60;;;17.30;72.20;;;;;;5055658;28;20118;-82
2022/03/25 11:30:13;;;;;;;3.90;2.90;;;17.30;72.80;;;;;;5055765;28;20041;-82
2022/03/25 11:32:55;;;;;;;4.05;1.23;;;17.30;70.70;;;;;;5055632;28;20052;-82
2022/03/25 11:35:21;;;;;;;2.88;1.80;;;17.60;71.70;;;;;;5055686;28;20063;-82
2022/03/25 11:37:47;;;;;;;3.90;1.40;;;17.60;69.70;;;;;;5055368;28;20041;-82
2022/03/25 11:40:13;;;;;;;2.53;2.28;;;17.90;70.40;;;;;;5055535;28;20045;-82
2022/03/25 11:42:42;;;;;;;3.78;3.40;;;17.80;70.60;;;;;;5038458;28;20114;-82
2022/03/25 11:45:31;;;;;;;3.55;2.58;;;17.90;68.40;;;;;;5055000;28;20045;-82
2022/03/25 11:47:59;;;;;;;3.95;2.25;;;18.00;68.20;;;;;;5055142;28;20052;-82
2022/03/25 11:50:27;;;;;;;1.70;1.60;;;18.00;68.50;;;;;;5054900;28;20045;-82
2022/03/25 11:52:53;;;;;;;2.00;1.17;;;18.00;67.20;;;;;;5038094;28;20052;-82
2022/03/25 11:55:19;;;;;;;5.43;1.33;;;18.30;68.90;;;;;;5054539;28;20473;-81
2022/03/25 11:57:46;;;;;;;1.23;1.20;;;18.40;66.60;;;;;;5054791;28;20135;-81
2022/03/25 12:00:26;;;;;;;4.18;3.83;;;18.40;67.60;;;;;;5054825;28;20037;-81
2022/03/25 12:03:03;;;;;;;6.00;2.60;;;18.20;65.20;;;;;;5054724;28;20484;-81
2022/03/25 12:05:29;;;;;;;2.67;2.28;;;18.20;66.60;;;;;;5054850;28;20076;-81
2022/03/25 12:08:32;;;;;;;10.25;2.97;;;18.10;66.20;;;;;;5054623;28;20037;-81
2022/03/25 12:11:00;;;;;;;2.45;2.25;;;18.50;68.00;;;;;;5054567;28;20132;-81
2022/03/25 12:13:51;;;;;;;2.85;1.63;;;18.60;67.00;;;;;;5054551;28;20481;-81
2022/03/25 12:16:44;;;;;;;1.80;1.42;;;18.50;65.00;;;;;;5053794;28;20045;-81
2022/03/25 12:19:28;;;;;;;3.05;0.98;;;18.70;65.10;;;;;;5054472;28;20049;-81
2022/03/25 12:22:02;;;;;;;1.50;1.33;;;18.80;65.00;;;;;;5054495;28;20135;-81
2022/03/25 12:24:30;;;;;;;4.47;2.30;;;18.90;64.60;;;;;;5038354;28;20115;-81
2022/03/25 12:26:57;;;;;;;2.15;2.05;;;18.90;64.10;;;;;;5054209;28;20079;-81
2022/03/25 12:29:31;;;;;;;1.70;1.60;;;18.80;64.20;;;;;;5054457;28;20486;-81
2022/03/25 12:32:00;;;;;;;1.30;1.27;;;19.10;64.30;;;;;;5037759;28;20562;-81
2022/03/25 12:34:34;;;;;;;1.02;0.93;;;19.20;63.90;;;;;;5054222;28;20045;-81
2022/03/25 12:37:02;;;;;;;0.47;0.47;;;19.40;63.90;;;;;;5054870;28;20053;-81
2022/03/25 12:39:28;;;;;;;0.20;0.20;;;19.60;61.80;;;;;;5054415;28;20056;-81
2022/03/25 12:41:55;;;;;;;0.40;0.40;;;20.00;63.20;;;;;;5054085;28;20500;-81
2022/03/25 12:44:30;;;;;;;1.33;1.25;;;20.20;61.60;;;;;;5053883;28;20049;-81
2022/03/25 12:47:01;;;;;;;10.80;2.05;;;20.00;60.10;;;;;;5053858;28;20392;-81
2022/03/25 12:49:27;;;;;;;0.95;0.85;;;19.90;58.10;;;;;;5053809;28;20492;-81
2022/03/25 12:51:57;;;;;;;1.25;0.90;;;20.00;59.40;;;;;;5053644;28;20041;-81
2022/03/25 12:54:23;;;;;;;1.30;1.30;;;19.90;58.20;;;;;;5053467;28;20131;-81
2022/03/25 12:57:00;;;;;;;3.00;1.50;;;20.00;59.80;;;;;;5053679;28;20535;-81
2022/03/25 12:59:30;;;;;;;4.75;1.42;;;20.00;57.90;;;;;;5053625;28;20595;-81
2022/03/25 13:01:56;;;;;;;2.65;1.13;;;20.00;58.50;;;;;;5053737;28;20048;-81
2022/03/25 13:04:29;;;;;;;0.57;0.57;;;20.00;59.50;;;;;;5053190;28;20041;-81